Погода Залучинона неделю

Витебская область, Белоруссия

24 - 30 мая
  • 24мая
    Сегодня
    +11°
    +24°
    Ясно и безоблачно
    ВремяПогодаТемператураВлажностьДавлениеВетер, м/сВероятность осадков
    00:00Облачно с прояснениями+16°C54 %756 мм4.1 м/с2 %
    03:00Практически безоблачно+13°C64 %756 мм3.1 м/с2 %
    06:00Ясно и безоблачно+12°C67 %757 мм3.4 м/с2 %
    09:00Ясно и безоблачно+17°C62 %758 мм3.9 м/с2 %
    12:00Ясно и безоблачно+22°C47 %758 мм4.4 м/с2 %
    15:00Ясно и безоблачно+24°C43 %757 мм4.1 м/с2 %
    18:00Ясно и безоблачно+23°C44 %757 мм3.8 м/с2 %
    21:00Ясно и безоблачно+18°C58 %757 мм2.8 м/с2 %
  • 25мая
    Суббота
    +12°
    +25°
    Практически безоблачно
    ВремяПогодаТемператураВлажностьДавлениеВетер, м/сВероятность осадков
    00:00Ясно и безоблачно+15°C61 %757 мм3.3 м/с2 %
    03:00Ясно и безоблачно+12°C66 %757 мм2.7 м/с2 %
    06:00Ясно и безоблачно+12°C71 %757 мм2.6 м/с2 %
    09:00Практически безоблачно+18°C62 %757 мм2.0 м/с2 %
    12:00Небольшая облачность+23°C50 %757 мм2.2 м/с2 %
    15:00Практически безоблачно+25°C40 %756 мм2.7 м/с2 %
    18:00Практически безоблачно+24°C44 %755 мм1.9 м/с2 %
    21:00Практически безоблачно+19°C69 %755 мм2.5 м/с2 %
  • 26мая
    Воскресенье
    +14°
    +26°
    Практически безоблачно
    ВремяПогодаТемператураВлажностьДавлениеВетер, м/сВероятность осадков
    00:00Ясно и безоблачно+15°C78 %755 мм2.1 м/с2 %
    03:00Ясно и безоблачно+14°C68 %755 мм2.5 м/с2 %
    06:00Практически безоблачно+14°C76 %755 мм1.8 м/с2 %
    09:00Ясно и безоблачно+19°C59 %756 мм1.2 м/с2 %
    12:00Ясно и безоблачно+23°C40 %756 мм0.8 м/с2 %
    15:00Практически безоблачно+25°C38 %755 мм1.3 м/с2 %
    18:00Практически безоблачно+25°C38 %754 мм3.0 м/с2 %
    21:00Ясно и безоблачно+20°C59 %754 мм1.3 м/с2 %
  • 27мая
    Понедельник
    +14°
    +26°
    Практически безоблачно
    ВремяПогодаТемператураВлажностьДавлениеВетер, м/сВероятность осадков
    00:00Ясно и безоблачно+17°C57 %754 мм1.6 м/с2 %
    03:00Ясно и безоблачно+15°C73 %755 мм2.2 м/с2 %
    06:00Ясно и безоблачно+14°C78 %755 мм0.8 м/с2 %
    09:00Ясно и безоблачно+20°C63 %755 мм1.0 м/с2 %
    12:00Практически безоблачно+24°C40 %755 мм2.2 м/с2 %
    15:00Практически безоблачно+26°C43 %755 мм1.9 м/с7 %
    18:00Практически безоблачно+25°C45 %754 мм1.1 м/с22 %
    21:00Ясно и безоблачно+21°C66 %754 мм2.2 м/с9 %
  • 28мая
    Вторник
    +13°
    +26°
    Практически безоблачно
    ВремяПогодаТемператураВлажностьДавлениеВетер, м/сВероятность осадков
    00:00Ясно и безоблачно+17°C88 %754 мм2.1 м/с2 %
    03:00Ясно и безоблачно+15°C94 %754 мм2.2 м/с2 %
    06:00Ясно и безоблачно+15°C92 %753 мм1.2 м/с2 %
    09:00Ясно и безоблачно+20°C70 %754 мм0.7 м/с2 %
    12:00Практически безоблачно+24°C46 %754 мм1.6 м/с7 %
    15:00Практически безоблачно+25°C45 %753 мм1.4 м/с21 %
    18:00Небольшая облачность+25°C48 %752 мм1.1 м/с27 %
    21:00Практически безоблачно+22°C67 %752 мм0.8 м/с13 %
Мы используем cookies
Соглашаюсь